Time;durP1;ratioP1;P1;durP2;ratioP2;P2;SDS_P1;SDS_P2;PMS_P1;PMS_P2;Temp;Humidity;BMP_temperature;BMP_pressure;BME280_temperature;BME280_humidity;BME280_pressure;Samples;Min_cycle;Max_cycle;Signal;HPM_P1;HPM_P2
2023/03/16 00:00:20;;;;;;;4.43;0.73;;;5.00;67.60;;;;;;6125095;23;20111;-79
2023/03/16 00:02:48;;;;;;;3.15;0.60;;;4.90;67.50;;;;;;6124989;23;20017;-79
2023/03/16 00:05:15;;;;;;;3.15;0.82;;;4.60;67.50;;;;;;6152423;23;20104;-79
2023/03/16 00:07:43;;;;;;;2.35;0.65;;;4.80;67.70;;;;;;6125096;23;20017;-79
2023/03/16 00:10:14;;;;;;;4.45;0.85;;;4.70;67.60;;;;;;6130166;23;20515;-80
2023/03/16 00:12:42;;;;;;;6.07;0.90;;;4.90;67.30;;;;;;6135564;23;20064;-80
2023/03/16 00:15:11;;;;;;;3.53;0.80;;;4.60;67.30;;;;;;6134512;23;20052;-80
2023/03/16 00:17:47;;;;;;;4.45;0.55;;;4.60;67.00;;;;;;6134731;23;20524;-79
2023/03/16 00:20:16;;;;;;;5.78;1.00;;;4.90;67.30;;;;;;6181191;23;20123;-79
2023/03/16 00:22:44;;;;;;;4.13;0.80;;;4.50;67.10;;;;;;6164879;23;20643;-80
2023/03/16 00:25:16;;;;;;;3.67;0.55;;;4.70;67.40;;;;;;6163737;23;20067;-79
2023/03/16 00:27:43;;;;;;;4.00;1.00;;;4.80;67.20;;;;;;6164093;23;20087;-79
2023/03/16 00:30:11;;;;;;;6.70;1.30;;;4.60;67.50;;;;;;6159912;23;20391;-79
2023/03/16 00:32:39;;;;;;;5.82;1.38;;;4.80;67.60;;;;;;6161209;23;20084;-79
2023/03/16 00:35:09;;;;;;;5.28;1.20;;;4.70;67.30;;;;;;6156338;23;20029;-79
2023/03/16 00:37:38;;;;;;;5.28;1.30;;;4.60;68.00;;;;;;6155287;23;20071;-79
2023/03/16 00:40:07;;;;;;;6.53;1.58;;;4.60;68.70;;;;;;6156210;23;20043;-79
2023/03/16 00:42:34;;;;;;;6.78;0.90;;;4.60;68.20;;;;;;6156126;23;20617;-79
2023/03/16 00:45:01;;;;;;;4.95;0.90;;;4.60;68.10;;;;;;6155372;23;20031;-79
2023/03/16 00:47:32;;;;;;;3.05;0.85;;;4.70;68.50;;;;;;6155463;23;20116;-79
2023/03/16 00:50:00;;;;;;;5.47;1.48;;;4.60;68.60;;;;;;6156409;23;20048;-79
2023/03/16 00:52:28;;;;;;;4.82;1.30;;;4.30;68.80;;;;;;6155369;23;20024;-79
2023/03/16 00:54:57;;;;;;;4.18;1.17;;;4.20;69.20;;;;;;6154177;23;20043;-79
2023/03/16 00:57:28;;;;;;;7.45;1.48;;;4.50;69.20;;;;;;6155826;23;20039;-79
2023/03/16 00:59:56;;;;;;;2.97;1.20;;;4.50;70.60;;;;;;6155951;23;20631;-79
2023/03/16 01:02:26;;;;;;;4.53;1.20;;;3.90;69.80;;;;;;6178440;23;20153;-79
2023/03/16 01:04:53;;;;;;;4.75;1.23;;;4.40;70.40;;;;;;6181118;23;20350;-79
2023/03/16 01:07:21;;;;;;;3.80;1.05;;;4.30;71.20;;;;;;6163027;23;20035;-80
2023/03/16 01:09:53;;;;;;;7.72;1.23;;;4.30;70.70;;;;;;6158346;23;20024;-80
2023/03/16 01:12:20;;;;;;;4.00;1.25;;;4.00;70.60;;;;;;6161092;23;20068;-80
2023/03/16 01:14:48;;;;;;;3.88;1.00;;;4.20;71.60;;;;;;6157056;23;20613;-80
2023/03/16 01:17:17;;;;;;;5.22;1.17;;;4.20;71.90;;;;;;6156189;23;20024;-80
2023/03/16 01:19:45;;;;;;;3.50;1.00;;;4.20;72.60;;;;;;6183750;23;20025;-80
2023/03/16 01:22:14;;;;;;;6.13;1.52;;;4.00;73.60;;;;;;6157724;23;20020;-80
2023/03/16 01:24:45;;;;;;;4.55;1.58;;;4.00;74.10;;;;;;6161193;23;20134;-80
2023/03/16 01:27:13;;;;;;;6.57;1.70;;;4.00;74.20;;;;;;6163570;23;20048;-80
2023/03/16 01:29:42;;;;;;;7.40;2.25;;;3.80;74.20;;;;;;6165164;23;20027;-80
2023/03/16 01:32:10;;;;;;;8.05;1.65;;;3.70;74.50;;;;;;6163162;23;20127;-80
2023/03/16 01:34:38;;;;;;;5.95;2.08;;;3.70;75.10;;;;;;6165420;23;20021;-80
2023/03/16 01:37:08;;;;;;;7.07;2.05;;;3.80;75.00;;;;;;6187787;23;20386;-79
2023/03/16 01:39:41;;;;;;;6.47;2.58;;;3.40;75.50;;;;;;6165082;23;20005;-80
2023/03/16 01:42:09;;;;;;;8.25;2.35;;;3.70;75.90;;;;;;6166111;23;20075;-80
2023/03/16 01:44:54;;;;;;;8.73;2.90;;;3.60;76.60;;;;;;6187897;23;20071;-80
2023/03/16 01:47:26;;;;;;;10.20;3.17;;;3.60;76.50;;;;;;6163983;23;20043;-80
2023/03/16 01:49:56;;;;;;;7.25;2.50;;;3.30;76.80;;;;;;6163623;23;20334;-79
2023/03/16 01:52:35;;;;;;;10.80;2.85;;;3.50;77.20;;;;;;6166467;23;20036;-80
2023/03/16 01:55:08;;;;;;;8.60;3.38;;;3.40;77.20;;;;;;6165272;23;20032;-80
2023/03/16 01:57:45;;;;;;;9.35;3.30;;;3.40;77.90;;;;;;6167641;23;20024;-80
2023/03/16 02:00:22;;;;;;;8.02;2.70;;;3.40;77.80;;;;;;6170301;23;20013;-80
2023/03/16 02:03:24;;;;;;;8.85;3.00;;;3.70;78.50;;;;;;6190489;23;20067;-80
2023/03/16 02:06:19;;;;;;;11.05;4.25;;;3.20;78.80;;;;;;6167527;23;20024;-80
2023/03/16 02:08:55;;;;;;;11.60;3.72;;;3.10;78.40;;;;;;6162409;23;20024;-80
2023/03/16 02:11:27;;;;;;;13.57;3.78;;;3.10;78.70;;;;;;6162996;23;20020;-80
2023/03/16 02:14:08;;;;;;;10.98;3.53;;;3.00;78.80;;;;;;6169916;23;20363;-80
2023/03/16 02:16:35;;;;;;;9.85;4.07;;;3.00;80.10;;;;;;6161356;23;20024;-80
2023/03/16 02:19:07;;;;;;;9.68;3.40;;;3.10;79.90;;;;;;6160418;23;20047;-80
2023/03/16 02:21:53;;;;;;;13.75;4.00;;;3.00;79.50;;;;;;6183172;23;20086;-80
2023/03/16 02:24:21;;;;;;;13.20;5.05;;;3.00;79.50;;;;;;6183451;23;20070;-80
2023/03/16 02:26:56;;;;;;;14.77;4.55;;;2.80;79.10;;;;;;6181254;23;20520;-80
2023/03/16 02:29:47;;;;;;;19.50;7.75;;;3.00;78.90;;;;;;6159789;23;20017;-80
2023/03/16 02:32:16;;;;;;;14.55;5.88;;;2.70;78.30;;;;;;6156880;23;20052;-80
2023/03/16 02:34:44;;;;;;;14.23;4.38;;;2.50;78.80;;;;;;6183505;23;20032;-80
2023/03/16 02:37:15;;;;;;;9.48;2.63;;;2.80;79.00;;;;;;6160146;23;20025;-80
2023/03/16 02:39:42;;;;;;;6.05;2.10;;;2.60;78.50;;;;;;6159876;23;20079;-80
2023/03/16 02:42:20;;;;;;;7.20;2.08;;;2.70;78.70;;;;;;6164386;23;20021;-80
2023/03/16 02:44:58;;;;;;;5.50;1.73;;;2.20;78.40;;;;;;6162702;23;20020;-80
2023/03/16 02:47:42;;;;;;;3.22;1.88;;;2.70;78.60;;;;;;6183958;23;20055;-80
2023/03/16 02:50:11;;;;;;;3.92;1.77;;;2.70;78.60;;;;;;6184248;23;20084;-80
2023/03/16 02:52:40;;;;;;;4.53;1.65;;;2.70;78.50;;;;;;6166802;23;20031;-80
2023/03/16 02:55:09;;;;;;;5.88;1.55;;;2.70;78.60;;;;;;6163199;23;20012;-80
2023/03/16 02:57:39;;;;;;;3.55;1.00;;;3.20;78.80;;;;;;6162404;23;20056;-80
2023/03/16 03:00:16;;;;;;;5.60;1.30;;;2.70;78.50;;;;;;6162284;23;20024;-80
2023/03/16 03:02:45;;;;;;;5.68;1.10;;;2.70;78.50;;;;;;6184298;23;20029;-80
2023/03/16 03:05:14;;;;;;;6.15;1.02;;;2.60;78.40;;;;;;6165869;23;20445;-80
2023/03/16 03:07:42;;;;;;;7.15;1.30;;;2.90;78.50;;;;;;6160638;23;20127;-80
2023/03/16 03:10:12;;;;;;;6.85;1.58;;;2.40;78.30;;;;;;6186510;23;20411;-80
2023/03/16 03:12:42;;;;;;;4.55;1.15;;;2.70;78.60;;;;;;6161367;23;20024;-80
2023/03/16 03:15:10;;;;;;;5.10;1.45;;;2.80;78.80;;;;;;6185290;23;20115;-80
2023/03/16 03:17:51;;;;;;;3.70;1.30;;;2.90;78.80;;;;;;6163405;23;20078;-80
2023/03/16 03:20:22;;;;;;;6.72;1.58;;;2.60;78.70;;;;;;6158154;23;20487;-80
2023/03/16 03:22:51;;;;;;;5.22;1.55;;;2.80;78.70;;;;;;6181050;23;20482;-80
2023/03/16 03:25:20;;;;;;;6.30;1.85;;;2.80;78.90;;;;;;6155218;23;20441;-80
2023/03/16 03:27:53;;;;;;;6.47;1.70;;;2.50;78.50;;;;;;6159641;23;20216;-80
2023/03/16 03:30:23;;;;;;;5.65;1.83;;;2.60;78.70;;;;;;6181444;23;20024;-80
2023/03/16 03:32:51;;;;;;;4.90;1.90;;;2.70;78.80;;;;;;6157882;23;20348;-80
2023/03/16 03:35:22;;;;;;;4.15;1.58;;;2.30;78.80;;;;;;6155568;23;20044;-79
2023/03/16 03:37:50;;;;;;;6.57;2.33;;;2.50;79.20;;;;;;6157314;23;20757;-80
2023/03/16 03:40:19;;;;;;;5.15;1.80;;;2.50;79.50;;;;;;6153981;23;20028;-80
2023/03/16 03:42:50;;;;;;;8.57;1.83;;;2.50;79.60;;;;;;6183086;23;20028;-80
2023/03/16 03:45:18;;;;;;;3.88;1.70;;;2.40;79.70;;;;;;6211801;23;20025;-80
2023/03/16 03:47:46;;;;;;;5.82;1.52;;;2.60;80.10;;;;;;6161936;23;20119;-80
2023/03/16 03:50:18;;;;;;;4.50;2.03;;;2.50;80.10;;;;;;6156932;23;20028;-80
2023/03/16 03:53:04;;;;;;;6.63;1.88;;;2.60;80.30;;;;;;6181394;23;20379;-80
2023/03/16 03:55:43;;;;;;;6.70;1.75;;;2.60;80.90;;;;;;6158122;23;20339;-80
2023/03/16 03:58:11;;;;;;;5.05;1.42;;;2.60;80.70;;;;;;6154236;23;20090;-80
2023/03/16 04:00:40;;;;;;;6.28;1.55;;;2.60;80.70;;;;;;6156516;23;20025;-80
2023/03/16 04:03:12;;;;;;;5.88;2.17;;;2.30;80.60;;;;;;6162344;23;20019;-80
2023/03/16 04:05:46;;;;;;;7.18;1.90;;;2.50;80.70;;;;;;6161446;23;20033;-80
2023/03/16 04:08:14;;;;;;;4.85;1.52;;;2.60;81.00;;;;;;6134695;23;20036;-80
2023/03/16 04:10:41;;;;;;;5.63;1.85;;;2.80;80.90;;;;;;6183137;23;20035;-80
2023/03/16 04:13:12;;;;;;;6.10;2.03;;;2.70;81.00;;;;;;6178415;23;20021;-80
2023/03/16 04:15:39;;;;;;;7.38;2.20;;;2.50;81.00;;;;;;6154803;23;20076;-80
2023/03/16 04:18:15;;;;;;;9.88;2.53;;;2.60;81.00;;;;;;6152096;23;20025;-79
2023/03/16 04:20:43;;;;;;;6.28;1.88;;;2.40;81.30;;;;;;6155153;23;20348;-80
2023/03/16 04:23:15;;;;;;;5.47;1.58;;;2.40;81.60;;;;;;6155342;23;20028;-80
2023/03/16 04:25:45;;;;;;;8.40;2.45;;;2.40;81.80;;;;;;6163959;23;20051;-80
2023/03/16 04:28:16;;;;;;;6.97;1.90;;;2.30;82.50;;;;;;6159383;23;20016;-80
2023/03/16 04:30:53;;;;;;;6.78;1.98;;;2.40;82.10;;;;;;6157563;23;20079;-80
2023/03/16 04:33:37;;;;;;;7.72;2.35;;;1.60;81.60;;;;;;6182325;23;20031;-80
2023/03/16 04:36:05;;;;;;;6.50;2.65;;;2.50;82.00;;;;;;6181701;23;20089;-80
2023/03/16 04:38:35;;;;;;;9.52;2.88;;;2.40;82.30;;;;;;6163333;23;20029;-80
2023/03/16 04:41:04;;;;;;;7.28;2.80;;;2.40;82.40;;;;;;6160500;23;20020;-80
2023/03/16 04:43:36;;;;;;;6.38;2.78;;;2.40;82.20;;;;;;6188498;23;20322;-80
2023/03/16 04:46:10;;;;;;;5.07;2.45;;;2.40;82.50;;;;;;6162589;23;20024;-80
2023/03/16 04:48:38;;;;;;;7.40;2.42;;;2.30;82.70;;;;;;6182995;23;20099;-80
2023/03/16 04:51:11;;;;;;;8.73;2.75;;;2.30;83.10;;;;;;6159423;23;20032;-80
2023/03/16 04:53:50;;;;;;;9.10;2.20;;;1.80;82.80;;;;;;6162673;23;20029;-80
2023/03/16 04:56:24;;;;;;;9.07;2.05;;;2.10;83.60;;;;;;6160580;23;20039;-80
2023/03/16 04:58:57;;;;;;;6.97;2.05;;;2.30;83.60;;;;;;6181793;23;20012;-80
2023/03/16 05:01:29;;;;;;;8.00;2.90;;;2.20;83.70;;;;;;6158182;23;20115;-80
2023/03/16 05:04:01;;;;;;;9.73;2.85;;;2.40;83.80;;;;;;6160705;23;20040;-80
2023/03/16 05:06:32;;;;;;;5.97;2.47;;;2.20;84.10;;;;;;6165109;23;20021;-80
2023/03/16 05:09:00;;;;;;;8.60;3.08;;;2.20;84.00;;;;;;6165241;23;20469;-80
2023/03/16 05:11:29;;;;;;;10.13;4.45;;;2.20;84.00;;;;;;6188783;23;20028;-80
2023/03/16 05:14:00;;;;;;;16.75;6.85;;;1.90;84.30;;;;;;6158652;23;20020;-80
2023/03/16 05:16:41;;;;;;;11.93;3.67;;;2.00;85.30;;;;;;6160663;23;20034;-80
2023/03/16 05:19:09;;;;;;;16.88;5.15;;;2.10;84.80;;;;;;6183496;23;20355;-80
2023/03/16 05:21:39;;;;;;;10.23;3.83;;;2.10;85.00;;;;;;6161156;23;20020;-79
2023/03/16 05:24:08;;;;;;;12.13;3.58;;;2.30;84.90;;;;;;6160497;23;20031;-80
2023/03/16 05:26:38;;;;;;;9.65;3.08;;;2.10;85.30;;;;;;6167465;23;20043;-80
2023/03/16 05:29:09;;;;;;;13.00;4.03;;;2.10;85.20;;;;;;6165056;23;20127;-79
2023/03/16 05:31:40;;;;;;;9.90;3.25;;;2.20;85.20;;;;;;6163696;23;20021;-80
2023/03/16 05:34:13;;;;;;;10.27;3.30;;;2.00;85.20;;;;;;6165873;23;20368;-80
2023/03/16 05:36:44;;;;;;;8.95;3.20;;;2.20;85.20;;;;;;6159495;23;20512;-80
2023/03/16 05:39:17;;;;;;;10.90;2.75;;;2.20;84.90;;;;;;6188837;23;20020;-80
2023/03/16 05:41:47;;;;;;;;;;;1.70;84.70;;;;;;6170906;23;20021;-80
2023/03/16 05:44:15;;;;;;;9.85;3.40;;;2.40;85.10;;;;;;6196998;23;19931;-80
2023/03/16 05:46:58;;;;;;;7.32;2.65;;;2.30;85.10;;;;;;6198172;23;20040;-80
2023/03/16 05:49:26;;;;;;;6.65;3.08;;;2.20;84.70;;;;;;6174566;23;20020;-80
2023/03/16 05:51:54;;;;;;;12.75;3.67;;;2.40;84.80;;;;;;6189662;23;20343;-79
2023/03/16 05:54:22;;;;;;;13.18;4.60;;;2.50;85.30;;;;;;6164040;23;20020;-80
2023/03/16 05:56:50;;;;;;;12.35;3.85;;;2.40;85.20;;;;;;6174754;23;20012;-80
2023/03/16 05:59:20;;;;;;;14.18;4.90;;;2.40;85.20;;;;;;6175661;23;20021;-80
2023/03/16 06:01:52;;;;;;;10.10;3.70;;;2.00;85.00;;;;;;6171207;23;20028;-80
2023/03/16 06:04:20;;;;;;;9.70;3.78;;;2.60;85.00;;;;;;6173920;23;20020;-80
2023/03/16 06:06:48;;;;;;;13.23;4.00;;;2.70;84.80;;;;;;6167873;23;20017;-80
2023/03/16 06:09:20;;;;;;;10.10;3.72;;;2.70;84.20;;;;;;6169799;23;20017;-80
2023/03/16 06:11:47;;;;;;;7.22;3.83;;;2.80;83.70;;;;;;6168539;23;20352;-80
2023/03/16 06:14:17;;;;;;;15.35;4.90;;;3.10;82.90;;;;;;6198423;23;20091;-80
2023/03/16 06:16:47;;;;;;;11.73;4.20;;;3.20;82.00;;;;;;6177828;23;20020;-80
2023/03/16 06:19:15;;;;;;;10.13;3.70;;;3.20;81.70;;;;;;6176610;23;20025;-80
2023/03/16 06:21:44;;;;;;;13.35;4.57;;;3.40;80.90;;;;;;6197232;23;20416;-80
2023/03/16 06:24:11;;;;;;;10.25;4.68;;;3.50;80.80;;;;;;6164338;23;20012;-80
2023/03/16 06:26:41;;;;;;;7.78;3.03;;;3.50;80.30;;;;;;6188508;23;20023;-80
2023/03/16 06:29:11;;;;;;;10.55;3.90;;;3.60;80.00;;;;;;6175755;23;20337;-80
2023/03/16 06:31:42;;;;;;;8.85;4.53;;;3.70;79.60;;;;;;6170106;23;20028;-80
2023/03/16 06:34:13;;;;;;;9.35;5.05;;;4.00;79.60;;;;;;6171618;23;20020;-80
2023/03/16 06:36:43;;;;;;;10.73;4.05;;;3.80;78.40;;;;;;6172792;23;20039;-80
2023/03/16 06:39:13;;;;;;;13.35;4.32;;;3.90;78.60;;;;;;6166969;23;20028;-80
2023/03/16 06:41:46;;;;;;;12.82;4.28;;;4.20;78.20;;;;;;6171390;23;20020;-80
2023/03/16 06:44:15;;;;;;;9.55;3.88;;;4.10;78.00;;;;;;6171380;23;20025;-80
2023/03/16 06:47:02;;;;;;;9.10;3.63;;;4.40;77.70;;;;;;6168331;23;20029;-80
2023/03/16 06:49:30;;;;;;;13.40;3.92;;;4.80;76.70;;;;;;6169667;23;20024;-80
2023/03/16 06:52:02;;;;;;;7.75;3.58;;;4.60;75.90;;;;;;6171254;23;20015;-80
2023/03/16 06:54:34;;;;;;;10.10;4.60;;;4.70;74.40;;;;;;6192760;23;20005;-81
2023/03/16 06:57:04;;;;;;;11.23;3.83;;;4.80;74.10;;;;;;6181274;23;20031;-80
2023/03/16 06:59:31;;;;;;;9.93;3.83;;;4.90;73.70;;;;;;6167448;23;20029;-80
2023/03/16 07:01:59;;;;;;;7.78;3.58;;;4.70;72.30;;;;;;6163938;23;20055;-80
2023/03/16 07:04:26;;;;;;;10.00;3.35;;;5.00;73.00;;;;;;6160823;23;20028;-80
2023/03/16 07:06:59;;;;;;;6.00;3.70;;;5.10;71.80;;;;;;6163287;23;20024;-80
2023/03/16 07:09:28;;;;;;;6.95;3.13;;;5.10;71.50;;;;;;6169503;23;20388;-80
2023/03/16 07:11:55;;;;;;;8.65;3.95;;;5.30;71.00;;;;;;6171175;23;20020;-80
2023/03/16 07:14:25;;;;;;;11.18;3.13;;;5.20;70.60;;;;;;6166368;23;20087;-80
2023/03/16 07:16:58;;;;;;;;;;;5.30;71.30;;;;;;6195823;23;20463;-80
2023/03/16 07:19:25;;;;;;;9.15;3.20;;;5.60;70.20;;;;;;6168003;23;19920;-81
2023/03/16 07:21:59;;;;;;;8.43;3.38;;;5.50;69.80;;;;;;6193494;23;20017;-81
2023/03/16 07:24:28;;;;;;;7.18;2.13;;;5.70;69.40;;;;;;6160639;23;20506;-80
2023/03/16 07:26:55;;;;;;;10.60;3.00;;;5.70;68.20;;;;;;6153974;23;20052;-80
2023/03/16 07:29:27;;;;;;;9.45;2.85;;;5.40;67.70;;;;;;6161457;23;20025;-80
2023/03/16 07:31:56;;;;;;;9.07;2.83;;;5.90;67.50;;;;;;6180522;23;20095;-80
2023/03/16 07:34:30;;;;;;;7.30;2.38;;;6.20;67.70;;;;;;6188581;23;20031;-80
2023/03/16 07:36:58;;;;;;;4.85;1.88;;;5.90;66.30;;;;;;6172963;23;20009;-80
2023/03/16 07:39:28;;;;;;;4.28;2.05;;;6.30;66.60;;;;;;6158774;23;20359;-80
2023/03/16 07:42:03;;;;;;;3.85;1.77;;;6.10;64.80;;;;;;6155713;23;20017;-80
2023/03/16 07:44:43;;;;;;;9.68;2.17;;;6.10;64.50;;;;;;6160587;23;20084;-80
2023/03/16 07:47:12;;;;;;;6.05;2.17;;;6.10;64.50;;;;;;6195181;23;20416;-80
2023/03/16 07:49:41;;;;;;;5.00;2.00;;;6.30;64.60;;;;;;6158246;23;20507;-80
2023/03/16 07:52:16;;;;;;;5.35;2.33;;;6.50;64.50;;;;;;6159865;23;20048;-80
2023/03/16 07:54:48;;;;;;;5.38;1.70;;;6.20;63.80;;;;;;6182926;23;20028;-80
2023/03/16 07:57:15;;;;;;;7.95;1.90;;;6.70;63.40;;;;;;6155281;23;20522;-80
2023/03/16 07:59:43;;;;;;;4.25;1.88;;;6.70;63.10;;;;;;6158373;23;20467;-80
2023/03/16 08:02:17;;;;;;;3.35;1.73;;;6.70;63.20;;;;;;6178755;23;20083;-80
2023/03/16 08:04:47;;;;;;;;;;;6.80;63.30;;;;;;6154118;23;20043;-80
2023/03/16 08:07:18;;;;;;;3.90;1.35;;;6.70;62.70;;;;;;6184165;23;19928;-79
2023/03/16 08:09:57;;;;;;;4.93;1.90;;;6.90;62.10;;;;;;6168519;23;20020;-81
2023/03/16 08:12:42;;;;;;;6.35;1.50;;;6.90;62.70;;;;;;6160865;23;20055;-80
2023/03/16 08:15:10;;;;;;;5.18;1.58;;;7.00;61.90;;;;;;6154443;23;20103;-80
2023/03/16 08:17:40;;;;;;;5.32;2.00;;;7.10;62.00;;;;;;6152988;23;20035;-80
2023/03/16 08:20:13;;;;;;;3.75;1.60;;;7.10;61.90;;;;;;6164248;23;20029;-80
2023/03/16 08:22:45;;;;;;;4.10;1.30;;;7.20;61.60;;;;;;6158862;23;20111;-80
2023/03/16 08:25:18;;;;;;;5.40;1.48;;;7.30;60.90;;;;;;6155948;23;20498;-80
2023/03/16 08:28:14;;;;;;;8.85;3.08;;;7.40;61.60;;;;;;6190262;23;20024;-80
2023/03/16 08:30:50;;;;;;;26.17;10.52;;;7.30;60.90;;;;;;6165405;23;20028;-80
2023/03/16 08:33:35;;;;;;;7.15;1.48;;;7.40;60.50;;;;;;6161463;23;20211;-81
2023/03/16 08:36:10;;;;;;;7.70;2.92;;;7.60;61.00;;;;;;6163215;23;20029;-80
2023/03/16 08:38:41;;;;;;;4.32;1.73;;;7.60;61.30;;;;;;6160701;23;20060;-80
2023/03/16 08:41:12;;;;;;;4.28;1.75;;;7.40;59.70;;;;;;6164947;23;20024;-80
2023/03/16 08:43:41;;;;;;;4.57;1.65;;;7.60;60.10;;;;;;6151996;23;20026;-80
2023/03/16 08:46:10;;;;;;;20.10;11.57;;;7.80;60.80;;;;;;6163390;23;20032;-80
2023/03/16 08:48:45;;;;;;;4.88;1.40;;;7.80;59.80;;;;;;6161878;23;20114;-80
2023/03/16 08:51:33;;;;;;;6.40;3.63;;;7.80;59.10;;;;;;6130026;23;20061;-80
2023/03/16 08:54:07;;;;;;;5.97;1.58;;;7.60;59.10;;;;;;6093096;23;20026;-80
2023/03/16 08:56:37;;;;;;;3.55;1.55;;;7.60;59.10;;;;;;6125961;23;20025;-80
2023/03/16 08:59:04;;;;;;;4.20;2.13;;;7.70;59.20;;;;;;6093714;23;20025;-80
2023/03/16 09:01:34;;;;;;;4.57;2.20;;;7.90;59.10;;;;;;6090150;23;20500;-80
2023/03/16 09:04:02;;;;;;;4.90;1.60;;;8.10;59.10;;;;;;6101877;23;20169;-80
2023/03/16 09:06:31;;;;;;;5.63;2.05;;;8.00;57.60;;;;;;6106572;23;20018;-80
2023/03/16 09:08:58;;;;;;;4.68;1.58;;;8.20;58.00;;;;;;6102747;23;20394;-80
2023/03/16 09:11:29;;;;;;;4.32;2.03;;;8.50;58.10;;;;;;6099906;23;20025;-80
2023/03/16 09:14:03;;;;;;;4.20;1.83;;;8.30;58.00;;;;;;6098002;23;20025;-80
2023/03/16 09:16:34;;;;;;;3.15;1.73;;;8.10;57.40;;;;;;6096995;23;20084;-79
2023/03/16 09:19:02;;;;;;;2.55;1.30;;;8.00;57.10;;;;;;6088146;23;20084;-80
2023/03/16 09:21:30;;;;;;;8.50;3.40;;;8.30;57.30;;;;;;6093358;23;20060;-80
2023/03/16 09:23:59;;;;;;;1.90;0.75;;;8.50;56.30;;;;;;6117014;23;20025;-80
2023/03/16 09:26:27;;;;;;;5.25;3.05;;;8.40;54.40;;;;;;6094280;23;20017;-79
2023/03/16 09:28:54;;;;;;;8.68;1.77;;;8.10;55.00;;;;;;6143278;23;20083;-79
2023/03/16 09:31:22;;;;;;;4.18;1.45;;;8.20;55.80;;;;;;6157239;23;20020;-80
2023/03/16 09:33:49;;;;;;;6.05;1.65;;;8.50;56.20;;;;;;6160013;23;20020;-80
2023/03/16 09:36:17;;;;;;;3.80;1.48;;;8.70;56.30;;;;;;6158351;23;20047;-80
2023/03/16 09:38:45;;;;;;;3.92;1.45;;;8.90;56.10;;;;;;6178978;23;20080;-80
2023/03/16 09:41:40;;;;;;;4.07;1.88;;;8.80;54.70;;;;;;6179842;23;20024;-80
2023/03/16 09:44:23;;;;;;;5.82;2.00;;;8.80;54.30;;;;;;6152372;23;20078;-80
2023/03/16 09:46:53;;;;;;;4.50;1.35;;;8.80;54.60;;;;;;6157474;23;20123;-80
2023/03/16 09:49:34;;;;;;;6.25;1.95;;;8.60;53.90;;;;;;6182698;23;20020;-80
2023/03/16 09:52:39;;;;;;;3.28;1.35;;;8.60;53.80;;;;;;6161198;23;20070;-80
2023/03/16 09:55:25;;;;;;;5.15;1.65;;;9.20;54.50;;;;;;6152498;23;20794;-79
2023/03/16 09:57:54;;;;;;;4.07;1.73;;;8.70;53.60;;;;;;6154272;23;20080;-80
2023/03/16 10:00:40;;;;;;;6.10;1.50;;;8.90;54.40;;;;;;6155758;23;20025;-80
2023/03/16 10:03:23;;;;;;;4.35;1.40;;;9.20;54.70;;;;;;6152504;23;20021;-80
2023/03/16 10:05:56;;;;;;;4.10;1.15;;;9.20;54.30;;;;;;6152075;23;20030;-80
2023/03/16 10:08:44;;;;;;;1.92;0.90;;;8.80;50.90;;;;;;6176126;23;20028;-80
2023/03/16 10:11:14;;;;;;;3.50;1.38;;;9.00;51.10;;;;;;6150727;23;20033;-80
2023/03/16 10:13:51;;;;;;;3.75;1.00;;;9.00;53.60;;;;;;6096434;23;20025;-80
2023/03/16 10:16:39;;;;;;;3.65;1.10;;;9.20;52.40;;;;;;6113746;23;20067;-80
2023/03/16 10:19:15;;;;;;;3.47;1.20;;;9.70;53.20;;;;;;6093264;23;20034;-80
2023/03/16 10:21:43;;;;;;;4.78;1.55;;;9.60;51.80;;;;;;6100230;23;20404;-81
2023/03/16 10:24:24;;;;;;;6.32;1.83;;;9.60;52.20;;;;;;6128632;23;20018;-81
2023/03/16 10:27:00;;;;;;;5.82;2.33;;;9.60;52.80;;;;;;6115121;23;20022;-79
2023/03/16 10:29:35;;;;;;;5.25;1.77;;;9.80;52.50;;;;;;6043540;23;20022;-80
2023/03/16 10:32:13;;;;;;;4.63;1.63;;;9.80;52.50;;;;;;6001351;23;20055;-80
2023/03/16 10:34:44;;;;;;;2.25;1.27;;;9.90;51.40;;;;;;5968302;23;20578;-80
2023/03/16 10:37:14;;;;;;;5.43;2.08;;;9.80;49.90;;;;;;5999375;23;20004;-80
2023/03/16 10:39:53;;;;;;;3.20;1.15;;;10.30;50.40;;;;;;5968821;23;20031;-80
2023/03/16 10:42:26;;;;;;;4.78;1.13;;;8.80;50.10;;;;;;5961556;23;20377;-80
2023/03/16 10:48:17;;;;;;;5.80;2.33;;;9.50;50.90;;;;;;6177711;23;20036;-80
2023/03/16 10:51:19;;;;;;;2.88;1.33;;;9.60;50.20;;;;;;6097728;23;20338;-79
2023/03/16 10:53:47;;;;;;;4.65;1.58;;;9.60;49.00;;;;;;6105318;23;20037;-80
2023/03/16 10:56:24;;;;;;;4.22;1.17;;;9.50;48.40;;;;;;6168918;23;20024;-80
2023/03/16 10:58:53;;;;;;;4.82;1.45;;;9.80;50.00;;;;;;6145924;23;20002;-80
2023/03/16 11:01:44;;;;;;;3.33;1.35;;;10.00;49.10;;;;;;6126985;23;20396;-80
2023/03/16 11:04:17;;;;;;;5.03;1.30;;;9.70;49.70;;;;;;6099327;23;20041;-81
2023/03/16 11:10:31;;;;;;;1.42;0.60;;;9.90;49.50;;;;;;6134437;23;20046;-80
2023/03/16 11:13:21;;;;;;;2.80;1.13;;;9.90;49.40;;;;;;6117416;23;20021;-81
2023/03/16 11:16:27;;;;;;;4.00;1.02;;;9.60;49.70;;;;;;6113341;23;20033;-80
2023/03/16 11:19:20;;;;;;;4.35;1.90;;;8.80;49.30;;;;;;6052426;23;20040;-81
2023/03/16 11:22:20;;;;;;;4.72;1.33;;;9.70;49.10;;;;;;6106562;23;20010;-81
2023/03/16 11:25:06;;;;;;;3.08;1.67;;;9.80;48.50;;;;;;6085134;23;21027;-80
2023/03/16 11:27:55;;;;;;;3.00;1.00;;;10.00;48.80;;;;;;6140572;23;20025;-81
2023/03/16 11:30:41;;;;;;;3.60;1.27;;;10.10;48.20;;;;;;6132831;23;20026;-80
2023/03/16 11:33:11;;;;;;;3.85;1.15;;;10.30;47.50;;;;;;6162256;23;20064;-80
2023/03/16 11:35:41;;;;;;;3.80;1.30;;;10.20;46.90;;;;;;6118914;23;20029;-80
2023/03/16 11:38:30;;;;;;;3.55;1.60;;;10.30;47.50;;;;;;6139186;23;20028;-80
2023/03/16 11:41:09;;;;;;;2.20;0.90;;;10.40;46.80;;;;;;6164929;23;20048;-80
2023/03/16 11:43:55;;;;;;;2.72;0.70;;;10.40;46.40;;;;;;6143657;23;20028;-81
2023/03/16 11:47:09;;;;;;;4.57;0.77;;;10.70;46.00;;;;;;6149934;23;20025;-80
2023/03/16 11:50:19;;;;;;;1.95;0.73;;;10.60;46.30;;;;;;6182625;23;20029;-81
2023/03/16 11:52:54;;;;;;;3.28;0.93;;;10.90;48.10;;;;;;6130048;23;20036;-81
2023/03/16 11:56:01;;;;;;;3.13;0.80;;;10.70;45.90;;;;;;6131113;23;20377;-81
2023/03/16 11:58:54;;;;;;;3.17;0.93;;;10.20;44.80;;;;;;6163247;23;20091;-81
2023/03/16 12:01:43;;;;;;;4.32;1.30;;;10.00;44.60;;;;;;6131059;23;20084;-81
2023/03/16 12:08:07;;;;;;;3.97;0.60;;;10.70;47.00;;;;;;6085440;23;20061;-79
2023/03/16 12:11:02;;;;;;;2.22;0.80;;;10.90;45.90;;;;;;6082035;23;20023;-81
2023/03/16 12:13:41;;;;;;;2.97;0.70;;;10.60;44.10;;;;;;6088333;23;20043;-80
2023/03/16 12:16:18;;;;;;;3.60;0.82;;;10.70;44.80;;;;;;6095182;23;20030;-80
2023/03/16 12:18:58;;;;;;;2.85;0.57;;;10.90;44.80;;;;;;6098526;23;20027;-80
2023/03/16 12:21:32;;;;;;;2.17;0.75;;;10.90;44.60;;;;;;6103740;23;20061;-80
2023/03/16 12:24:25;;;;;;;3.00;0.95;;;10.90;43.50;;;;;;6095085;23;20030;-81
2023/03/16 12:26:52;;;;;;;2.38;0.77;;;10.70;42.50;;;;;;6062377;23;20049;-80
2023/03/16 12:29:43;;;;;;;2.65;1.00;;;10.70;42.70;;;;;;6139009;23;20057;-80
2023/03/16 12:32:41;;;;;;;3.03;1.48;;;11.00;42.80;;;;;;6129731;23;20144;-80
2023/03/16 12:35:08;;;;;;;1.92;0.60;;;11.10;42.10;;;;;;6125137;23;20081;-80
2023/03/16 12:37:44;;;;;;;2.75;0.45;;;11.20;41.80;;;;;;6103092;23;20076;-80
2023/03/16 12:40:52;;;;;;;1.75;0.65;;;11.10;41.10;;;;;;6127778;23;20025;-81
2023/03/16 12:43:41;;;;;;;2.80;0.90;;;11.00;41.70;;;;;;6067746;23;20025;-79
2023/03/16 12:49:01;;;;;;;3.28;0.82;;;11.00;42.70;;;;;;6071195;23;20026;-80
2023/03/16 12:51:41;;;;;;;2.05;1.20;;;11.20;43.20;;;;;;6073626;23;20018;-81
2023/03/16 12:54:20;;;;;;;1.83;0.35;;;11.20;41.70;;;;;;6063219;23;20030;-81
2023/03/16 12:56:50;;;;;;;1.73;0.52;;;11.20;39.60;;;;;;6069770;23;20037;-81
2023/03/16 12:59:21;;;;;;;3.55;0.40;;;11.40;38.40;;;;;;6066454;23;20026;-81
2023/03/16 13:01:52;;;;;;;1.20;0.43;;;11.50;38.90;;;;;;6064914;23;20018;-81
2023/03/16 13:04:34;;;;;;;4.25;0.50;;;11.00;39.20;;;;;;6062253;23;20124;-80
2023/03/16 13:07:15;;;;;;;3.20;0.40;;;11.10;38.80;;;;;;6065137;23;20023;-81
2023/03/16 13:09:48;;;;;;;4.07;0.40;;;10.90;38.10;;;;;;6068517;23;20049;-81
2023/03/16 13:12:35;;;;;;;2.00;0.40;;;10.80;38.70;;;;;;6077632;23;20035;-81
2023/03/16 13:15:46;;;;;;;3.25;0.40;;;10.80;38.70;;;;;;6075172;23;20070;-81
2023/03/16 13:18:13;;;;;;;1.52;0.43;;;10.80;38.50;;;;;;6042294;23;20055;-80
2023/03/16 13:20:58;;;;;;;3.42;0.55;;;11.00;37.40;;;;;;6047965;23;20018;-81
2023/03/16 13:23:57;;;;;;;1.55;0.30;;;10.70;36.60;;;;;;6079831;23;20026;-81
2023/03/16 13:26:56;;;;;;;0.70;0.20;;;10.30;37.70;;;;;;6083365;23;20114;-80
2023/03/16 13:29:31;;;;;;;1.85;0.80;;;10.60;38.30;;;;;;6077272;23;20105;31
2023/03/16 13:32:07;;;;;;;1.55;0.90;;;10.90;38.00;;;;;;6078817;23;20096;-81
2023/03/16 13:34:45;;;;;;;1.60;0.40;;;10.90;38.20;;;;;;6088468;23;20038;-80
2023/03/16 13:37:16;;;;;;;1.33;0.65;;;11.20;38.50;;;;;;6023843;23;20015;-80
2023/03/16 13:40:21;;;;;;;1.58;0.30;;;11.10;36.50;;;;;;6017928;23;20039;-80
2023/03/16 13:42:55;;;;;;;3.75;0.82;;;11.20;36.10;;;;;;6002250;23;20460;-80
2023/03/16 13:45:30;;;;;;;1.65;0.30;;;11.10;36.30;;;;;;6006960;23;20032;-80